createdAt,value
2022-08-29T00:01:16.118Z,20.19
2022-08-29T00:11:46.753Z,20.18
2022-08-29T00:22:16.179Z,20.14
2022-08-29T00:32:45.289Z,20.14
2022-08-29T00:43:14.831Z,20.10
2022-08-29T00:53:47.472Z,20.09
2022-08-29T01:04:24.211Z,20.09
2022-08-29T01:14:57.198Z,20.02
2022-08-29T01:25:32.469Z,19.96
2022-08-29T01:36:01.423Z,19.96
2022-08-29T01:46:33.083Z,19.97
2022-08-29T01:57:03.129Z,19.88
2022-08-29T02:07:32.149Z,19.83
2022-08-29T02:18:01.093Z,19.74
2022-08-29T02:28:30.190Z,19.80
2022-08-29T02:38:59.257Z,19.85
2022-08-29T02:49:28.339Z,19.90
2022-08-29T02:59:59.261Z,19.98
2022-08-29T03:10:28.851Z,19.98
2022-08-29T03:20:57.914Z,19.88
2022-08-29T03:31:27.084Z,19.88
2022-08-29T03:41:56.517Z,20.03
2022-08-29T03:52:25.741Z,20.04
2022-08-29T04:02:56.000Z,19.98
2022-08-29T04:13:25.083Z,20.04
2022-08-29T04:23:54.534Z,19.99
2022-08-29T04:34:23.487Z,19.86
2022-08-29T04:44:52.579Z,19.77
2022-08-29T04:55:25.694Z,19.61
2022-08-29T05:06:02.347Z,19.57
2022-08-29T05:16:32.057Z,19.44
2022-08-29T05:27:01.190Z,19.31
2022-08-29T05:37:30.300Z,19.30
2022-08-29T05:47:59.912Z,19.35
2022-08-29T05:58:29.564Z,19.47
2022-08-29T06:08:59.687Z,19.59
2022-08-29T06:19:29.760Z,19.68
2022-08-29T06:30:01.739Z,19.76
2022-08-29T06:40:31.544Z,19.85
2022-08-29T06:51:01.967Z,19.86
2022-08-29T07:01:31.648Z,19.73
2022-08-29T07:12:03.521Z,19.52
2022-08-29T07:22:32.608Z,19.53
2022-08-29T07:33:01.831Z,19.59
2022-08-29T07:43:31.016Z,19.70
2022-08-29T07:54:00.605Z,19.91
2022-08-29T08:04:30.631Z,20.16
2022-08-29T08:15:00.388Z,20.54
2022-08-29T08:25:29.783Z,20.73
2022-08-29T08:35:58.933Z,20.82
2022-08-29T08:46:37.270Z,20.87
2022-08-29T08:57:11.465Z,20.95
2022-08-29T09:07:54.919Z,21.07
2022-08-29T09:18:30.633Z,21.35
2022-08-29T09:28:59.748Z,21.63
2022-08-29T09:39:30.737Z,21.93
2022-08-29T09:50:14.440Z,21.95
2022-08-29T10:00:47.837Z,22.09
2022-08-29T10:11:26.915Z,22.16
2022-08-29T10:22:07.282Z,22.27
2022-08-29T10:33:02.397Z,22.37
2022-08-29T10:43:42.000Z,22.45
2022-08-29T10:54:23.861Z,22.61
2022-08-29T11:04:57.050Z,22.71
2022-08-29T11:15:33.632Z,22.84
2022-08-29T11:26:10.273Z,22.86
2022-08-29T11:37:03.303Z,22.89
2022-08-29T11:47:40.847Z,22.92
2022-08-29T11:58:35.584Z,23.01
2022-08-29T12:09:13.587Z,23.18
2022-08-29T12:19:53.619Z,23.30
2022-08-29T12:30:22.960Z,23.31
2022-08-29T12:41:07.427Z,23.33
2022-08-29T12:51:42.953Z,23.36
2022-08-29T13:02:27.215Z,23.40
2022-08-29T13:13:05.225Z,23.38
2022-08-29T13:23:36.616Z,23.38
2022-08-29T13:34:22.649Z,23.28
2022-08-29T13:45:15.260Z,23.25
2022-08-29T13:55:45.778Z,23.30
2022-08-29T14:06:16.992Z,23.37
2022-08-29T14:16:45.993Z,23.48
2022-08-29T14:27:15.019Z,23.41
2022-08-29T14:37:44.877Z,23.37
2022-08-29T14:48:14.582Z,23.40
2022-08-29T14:58:43.920Z,23.37
2022-08-29T15:09:13.253Z,23.34
2022-08-29T15:20:31.546Z,23.31
2022-08-29T15:30:31.979Z,23.27
2022-08-29T15:41:01.323Z,23.20
2022-08-29T15:51:35.452Z,23.15
2022-08-29T16:02:05.650Z,23.08
2022-08-29T16:12:34.821Z,23.06
2022-08-29T16:23:05.138Z,22.95
2022-08-29T16:33:35.351Z,22.81
2022-08-29T16:44:05.033Z,22.72
2022-08-29T16:54:34.467Z,22.62
2022-08-29T17:05:03.987Z,22.55
2022-08-29T17:15:31.928Z,22.39
2022-08-29T17:26:04.460Z,22.18
2022-08-29T17:36:34.233Z,21.97
2022-08-29T17:47:04.593Z,21.73
2022-08-29T17:57:34.603Z,21.51
2022-08-29T18:08:04.217Z,21.29
2022-08-29T18:18:33.400Z,20.98
2022-08-29T18:29:02.460Z,20.67
2022-08-29T18:39:32.103Z,20.37
2022-08-29T18:50:19.101Z,20.07
2022-08-29T19:00:48.548Z,19.86
2022-08-29T19:11:17.948Z,19.70
2022-08-29T19:21:47.277Z,19.53
2022-08-29T19:32:16.767Z,19.25
2022-08-29T19:42:46.378Z,18.95
2022-08-29T19:53:17.975Z,18.99
2022-08-29T20:03:56.327Z,18.88
2022-08-29T20:14:25.468Z,18.87
2022-08-29T20:24:54.634Z,18.64
2022-08-29T20:35:38.667Z,18.48
2022-08-29T20:46:12.281Z,18.29
2022-08-29T20:56:41.651Z,18.11
2022-08-29T21:07:13.374Z,18.08
2022-08-29T21:17:42.628Z,17.98
2022-08-29T21:28:12.247Z,17.82
2022-08-29T21:38:42.799Z,17.71
2022-08-29T21:49:14.588Z,17.66
2022-08-29T21:59:43.665Z,17.43
2022-08-29T22:10:14.652Z,17.24
2022-08-29T22:20:44.468Z,17.23
2022-08-29T22:31:13.753Z,17.09
2022-08-29T22:41:47.291Z,17.04
2022-08-29T22:52:16.754Z,17.03
2022-08-29T23:02:46.622Z,17.04
2022-08-29T23:13:16.022Z,17.11
2022-08-29T23:23:45.597Z,16.97
2022-08-29T23:34:14.888Z,16.84
2022-08-29T23:44:43.955Z,16.76
2022-08-29T23:55:15.445Z,16.42
